sensor_id;sensor_type;location;lat;lon;timestamp;temperature;humidity
5059;DHT22;2548;52.050;11.036;2023-02-14T00:02:26;0.40;99.90
5059;DHT22;2548;52.050;11.036;2023-02-14T00:04:53;0.40;99.90
5059;DHT22;2548;52.050;11.036;2023-02-14T00:07:21;0.40;99.90
5059;DHT22;2548;52.050;11.036;2023-02-14T00:09:48;0.50;99.90
5059;DHT22;2548;52.050;11.036;2023-02-14T00:12:15;0.50;99.90
5059;DHT22;2548;52.050;11.036;2023-02-14T00:14:43;0.50;99.90
5059;DHT22;2548;52.050;11.036;2023-02-14T00:17:32;0.50;99.90
5059;DHT22;2548;52.050;11.036;2023-02-14T00:19:59;0.50;99.90
5059;DHT22;2548;52.050;11.036;2023-02-14T00:22:26;0.50;99.90
5059;DHT22;2548;52.050;11.036;2023-02-14T00:24:54;0.50;99.90
5059;DHT22;2548;52.050;11.036;2023-02-14T00:27:23;0.50;99.90
5059;DHT22;2548;52.050;11.036;2023-02-14T00:29:50;0.40;99.90
5059;DHT22;2548;52.050;11.036;2023-02-14T00:32:19;0.50;99.90
5059;DHT22;2548;52.050;11.036;2023-02-14T00:34:47;0.40;99.90
5059;DHT22;2548;52.050;11.036;2023-02-14T00:37:15;0.40;99.90
5059;DHT22;2548;52.050;11.036;2023-02-14T00:39:42;0.50;99.90
5059;DHT22;2548;52.050;11.036;2023-02-14T00:42:10;0.50;99.90
5059;DHT22;2548;52.050;11.036;2023-02-14T00:44:38;0.50;99.90
5059;DHT22;2548;52.050;11.036;2023-02-14T00:47:06;0.60;99.90
5059;DHT22;2548;52.050;11.036;2023-02-14T00:49:33;0.60;99.90
5059;DHT22;2548;52.050;11.036;2023-02-14T00:52:02;0.50;99.90
5059;DHT22;2548;52.050;11.036;2023-02-14T00:54:30;0.50;99.90
5059;DHT22;2548;52.050;11.036;2023-02-14T00:56:58;0.40;99.90
5059;DHT22;2548;52.050;11.036;2023-02-14T00:59:26;0.30;99.90
5059;DHT22;2548;52.050;11.036;2023-02-14T01:01:53;0.30;99.90
5059;DHT22;2548;52.050;11.036;2023-02-14T01:04:21;0.20;99.90
5059;DHT22;2548;52.050;11.036;2023-02-14T01:06:48;0.20;99.90
5059;DHT22;2548;52.050;11.036;2023-02-14T01:09:17;0.10;99.90
5059;DHT22;2548;52.050;11.036;2023-02-14T01:11:44;-0.10;99.90
5059;DHT22;2548;52.050;11.036;2023-02-14T01:14:14;-0.20;99.90
5059;DHT22;2548;52.050;11.036;2023-02-14T01:16:42;-0.20;99.90
5059;DHT22;2548;52.050;11.036;2023-02-14T01:19:09;-0.20;99.90
5059;DHT22;2548;52.050;11.036;2023-02-14T01:21:37;-0.20;99.90
5059;DHT22;2548;52.050;11.036;2023-02-14T01:24:06;-0.20;99.90
5059;DHT22;2548;52.050;11.036;2023-02-14T01:26:35;-0.10;99.90
5059;DHT22;2548;52.050;11.036;2023-02-14T01:29:03;-0.20;99.90
5059;DHT22;2548;52.050;11.036;2023-02-14T01:31:32;-0.10;99.90
5059;DHT22;2548;52.050;11.036;2023-02-14T01:34:00;-0.10;99.90
5059;DHT22;2548;52.050;11.036;2023-02-14T01:36:31;-0.10;99.90
5059;DHT22;2548;52.050;11.036;2023-02-14T01:39:01;-0.20;99.90
5059;DHT22;2548;52.050;11.036;2023-02-14T01:41:31;-0.20;99.90
5059;DHT22;2548;52.050;11.036;2023-02-14T01:44:02;-0.10;99.90
5059;DHT22;2548;52.050;11.036;2023-02-14T01:46:31;0.00;99.90
5059;DHT22;2548;52.050;11.036;2023-02-14T01:49:01;0.00;99.90
5059;DHT22;2548;52.050;11.036;2023-02-14T01:51:30;0.00;99.90
5059;DHT22;2548;52.050;11.036;2023-02-14T01:53:59;0.00;99.90
5059;DHT22;2548;52.050;11.036;2023-02-14T01:56:29;0.00;99.90
5059;DHT22;2548;52.050;11.036;2023-02-14T01:59:03;0.10;99.90
5059;DHT22;2548;52.050;11.036;2023-02-14T02:01:33;0.10;99.90
5059;DHT22;2548;52.050;11.036;2023-02-14T02:04:04;0.20;99.90
5059;DHT22;2548;52.050;11.036;2023-02-14T02:06:35;0.20;99.90
5059;DHT22;2548;52.050;11.036;2023-02-14T02:09:10;0.10;99.90
5059;DHT22;2548;52.050;11.036;2023-02-14T02:11:39;0.10;99.90
5059;DHT22;2548;52.050;11.036;2023-02-14T02:14:12;0.10;99.90
5059;DHT22;2548;52.050;11.036;2023-02-14T02:16:51;0.10;99.90
5059;DHT22;2548;52.050;11.036;2023-02-14T02:22:49;0.00;99.90
5059;DHT22;2548;52.050;11.036;2023-02-14T02:25:35;0.10;99.90
5059;DHT22;2548;52.050;11.036;2023-02-14T02:28:24;0.10;99.90
5059;DHT22;2548;52.050;11.036;2023-02-14T02:31:10;0.10;99.90
5059;DHT22;2548;52.050;11.036;2023-02-14T02:34:19;0.20;99.90
5059;DHT22;2548;52.050;11.036;2023-02-14T02:37:01;0.20;99.90
5059;DHT22;2548;52.050;11.036;2023-02-14T02:39:51;0.20;99.90
5059;DHT22;2548;52.050;11.036;2023-02-14T02:42:29;0.30;99.90
5059;DHT22;2548;52.050;11.036;2023-02-14T02:45:09;0.30;99.90
5059;DHT22;2548;52.050;11.036;2023-02-14T02:47:41;0.30;99.90
5059;DHT22;2548;52.050;11.036;2023-02-14T02:50:19;0.30;99.90
5059;DHT22;2548;52.050;11.036;2023-02-14T02:53:15;0.20;99.90
5059;DHT22;2548;52.050;11.036;2023-02-14T02:55:49;0.10;99.90
5059;DHT22;2548;52.050;11.036;2023-02-14T02:58:39;0.20;99.90
5059;DHT22;2548;52.050;11.036;2023-02-14T03:01:10;0.20;99.90
5059;DHT22;2548;52.050;11.036;2023-02-14T03:03:42;0.20;99.90
5059;DHT22;2548;52.050;11.036;2023-02-14T03:06:29;0.20;99.90
5059;DHT22;2548;52.050;11.036;2023-02-14T03:09:09;0.20;99.90
5059;DHT22;2548;52.050;11.036;2023-02-14T03:11:41;0.30;99.90
5059;DHT22;2548;52.050;11.036;2023-02-14T03:14:18;0.30;99.90
5059;DHT22;2548;52.050;11.036;2023-02-14T03:16:58;0.30;99.90
5059;DHT22;2548;52.050;11.036;2023-02-14T03:19:40;0.30;99.90
5059;DHT22;2548;52.050;11.036;2023-02-14T03:22:35;0.30;99.90
5059;DHT22;2548;52.050;11.036;2023-02-14T03:25:23;0.30;99.90
5059;DHT22;2548;52.050;11.036;2023-02-14T03:27:59;0.30;99.90
5059;DHT22;2548;52.050;11.036;2023-02-14T03:30:32;0.40;99.90
5059;DHT22;2548;52.050;11.036;2023-02-14T03:33:15;0.40;99.90
5059;DHT22;2548;52.050;11.036;2023-02-14T03:35:50;0.50;99.90
5059;DHT22;2548;52.050;11.036;2023-02-14T03:38:22;0.50;99.90
5059;DHT22;2548;52.050;11.036;2023-02-14T03:40:55;0.60;99.90
5059;DHT22;2548;52.050;11.036;2023-02-14T03:43:29;0.70;99.90
5059;DHT22;2548;52.050;11.036;2023-02-14T03:46:02;0.70;99.90
5059;DHT22;2548;52.050;11.036;2023-02-14T03:48:32;0.80;99.90
5059;DHT22;2548;52.050;11.036;2023-02-14T03:51:02;0.90;99.90
5059;DHT22;2548;52.050;11.036;2023-02-14T03:53:32;0.90;99.90
5059;DHT22;2548;52.050;11.036;2023-02-14T03:56:07;1.00;99.90
5059;DHT22;2548;52.050;11.036;2023-02-14T03:58:38;1.00;99.90
5059;DHT22;2548;52.050;11.036;2023-02-14T04:01:11;1.00;99.90
5059;DHT22;2548;52.050;11.036;2023-02-14T04:03:41;1.10;99.90
5059;DHT22;2548;52.050;11.036;2023-02-14T04:06:09;1.10;99.90
5059;DHT22;2548;52.050;11.036;2023-02-14T04:08:37;1.10;99.90
5059;DHT22;2548;52.050;11.036;2023-02-14T04:11:06;1.20;99.90
5059;DHT22;2548;52.050;11.036;2023-02-14T04:13:34;1.30;99.90
5059;DHT22;2548;52.050;11.036;2023-02-14T04:16:03;1.30;99.90
5059;DHT22;2548;52.050;11.036;2023-02-14T04:18:31;1.30;99.90
5059;DHT22;2548;52.050;11.036;2023-02-14T04:21:16;1.40;99.90
5059;DHT22;2548;52.050;11.036;2023-02-14T04:23:44;1.40;99.90
5059;DHT22;2548;52.050;11.036;2023-02-14T04:26:12;1.40;99.90
5059;DHT22;2548;52.050;11.036;2023-02-14T04:28:40;1.40;99.90
5059;DHT22;2548;52.050;11.036;2023-02-14T04:31:07;1.40;99.90
5059;DHT22;2548;52.050;11.036;2023-02-14T04:33:36;1.40;99.90
5059;DHT22;2548;52.050;11.036;2023-02-14T04:36:05;1.40;99.90
5059;DHT22;2548;52.050;11.036;2023-02-14T04:38:32;1.40;99.90
5059;DHT22;2548;52.050;11.036;2023-02-14T04:41:00;1.40;99.90
5059;DHT22;2548;52.050;11.036;2023-02-14T04:43:28;1.40;99.90
5059;DHT22;2548;52.050;11.036;2023-02-14T04:45:56;1.40;99.90
5059;DHT22;2548;52.050;11.036;2023-02-14T04:48:23;1.40;99.90
5059;DHT22;2548;52.050;11.036;2023-02-14T04:50:51;1.40;99.90
5059;DHT22;2548;52.050;11.036;2023-02-14T04:53:19;1.40;99.90
5059;DHT22;2548;52.050;11.036;2023-02-14T04:55:48;1.50;99.90
5059;DHT22;2548;52.050;11.036;2023-02-14T04:58:16;1.50;99.90
5059;DHT22;2548;52.050;11.036;2023-02-14T05:00:44;1.60;99.90
5059;DHT22;2548;52.050;11.036;2023-02-14T05:03:12;1.60;99.90
5059;DHT22;2548;52.050;11.036;2023-02-14T05:05:39;1.60;99.90
5059;DHT22;2548;52.050;11.036;2023-02-14T05:08:07;1.60;99.90
5059;DHT22;2548;52.050;11.036;2023-02-14T05:10:34;1.60;99.90
5059;DHT22;2548;52.050;11.036;2023-02-14T05:13:02;1.70;99.90
5059;DHT22;2548;52.050;11.036;2023-02-14T05:15:29;1.70;99.90
5059;DHT22;2548;52.050;11.036;2023-02-14T05:17:58;1.70;99.90
5059;DHT22;2548;52.050;11.036;2023-02-14T05:20:28;1.70;99.90
5059;DHT22;2548;52.050;11.036;2023-02-14T05:22:55;1.70;99.90
5059;DHT22;2548;52.050;11.036;2023-02-14T05:25:25;1.70;99.90
5059;DHT22;2548;52.050;11.036;2023-02-14T05:27:52;1.80;99.90
5059;DHT22;2548;52.050;11.036;2023-02-14T05:30:20;1.80;99.90
5059;DHT22;2548;52.050;11.036;2023-02-14T05:32:52;1.80;99.90
5059;DHT22;2548;52.050;11.036;2023-02-14T05:35:20;1.80;99.90
5059;DHT22;2548;52.050;11.036;2023-02-14T05:37:48;1.80;99.90
5059;DHT22;2548;52.050;11.036;2023-02-14T05:40:16;1.80;99.90
5059;DHT22;2548;52.050;11.036;2023-02-14T05:42:43;1.90;99.90
5059;DHT22;2548;52.050;11.036;2023-02-14T05:45:11;1.90;99.90
5059;DHT22;2548;52.050;11.036;2023-02-14T05:47:39;1.90;99.90
5059;DHT22;2548;52.050;11.036;2023-02-14T05:50:07;1.90;99.90
5059;DHT22;2548;52.050;11.036;2023-02-14T05:52:36;1.90;99.90
5059;DHT22;2548;52.050;11.036;2023-02-14T05:55:04;2.00;99.90
5059;DHT22;2548;52.050;11.036;2023-02-14T05:57:32;2.00;99.90
5059;DHT22;2548;52.050;11.036;2023-02-14T05:59:59;2.00;99.90
5059;DHT22;2548;52.050;11.036;2023-02-14T06:02:27;2.10;99.90
5059;DHT22;2548;52.050;11.036;2023-02-14T06:04:54;2.00;99.90
5059;DHT22;2548;52.050;11.036;2023-02-14T06:07:21;2.10;99.90
5059;DHT22;2548;52.050;11.036;2023-02-14T06:09:50;2.10;99.90
5059;DHT22;2548;52.050;11.036;2023-02-14T06:12:18;2.10;99.90
5059;DHT22;2548;52.050;11.036;2023-02-14T06:14:45;2.10;99.90
5059;DHT22;2548;52.050;11.036;2023-02-14T06:17:12;2.10;99.90
5059;DHT22;2548;52.050;11.036;2023-02-14T06:19:40;2.10;99.90
5059;DHT22;2548;52.050;11.036;2023-02-14T06:22:08;2.10;99.90
5059;DHT22;2548;52.050;11.036;2023-02-14T06:24:35;2.10;99.90
5059;DHT22;2548;52.050;11.036;2023-02-14T06:27:04;2.10;99.90
5059;DHT22;2548;52.050;11.036;2023-02-14T06:29:32;2.10;99.90
5059;DHT22;2548;52.050;11.036;2023-02-14T06:31:59;2.10;99.90
5059;DHT22;2548;52.050;11.036;2023-02-14T06:34:31;2.10;99.90
5059;DHT22;2548;52.050;11.036;2023-02-14T06:36:58;2.20;99.90
5059;DHT22;2548;52.050;11.036;2023-02-14T06:39:26;2.20;99.90
5059;DHT22;2548;52.050;11.036;2023-02-14T06:41:53;2.10;99.90
5059;DHT22;2548;52.050;11.036;2023-02-14T06:44:22;2.10;99.90
5059;DHT22;2548;52.050;11.036;2023-02-14T06:46:50;2.20;99.90
5059;DHT22;2548;52.050;11.036;2023-02-14T06:49:17;2.10;99.90
5059;DHT22;2548;52.050;11.036;2023-02-14T06:51:45;2.10;99.90
5059;DHT22;2548;52.050;11.036;2023-02-14T06:54:12;2.10;99.90
5059;DHT22;2548;52.050;11.036;2023-02-14T06:56:39;2.10;99.90
5059;DHT22;2548;52.050;11.036;2023-02-14T06:59:07;2.10;99.90
5059;DHT22;2548;52.050;11.036;2023-02-14T07:01:36;2.10;99.90
5059;DHT22;2548;52.050;11.036;2023-02-14T07:04:03;2.10;99.90
5059;DHT22;2548;52.050;11.036;2023-02-14T07:06:31;2.10;99.90
5059;DHT22;2548;52.050;11.036;2023-02-14T07:08:58;2.10;99.90
5059;DHT22;2548;52.050;11.036;2023-02-14T07:11:26;2.10;99.90
5059;DHT22;2548;52.050;11.036;2023-02-14T07:13:53;2.10;99.90
5059;DHT22;2548;52.050;11.036;2023-02-14T07:16:21;2.10;99.90
5059;DHT22;2548;52.050;11.036;2023-02-14T07:18:50;2.10;99.90
5059;DHT22;2548;52.050;11.036;2023-02-14T07:21:17;2.10;99.90
5059;DHT22;2548;52.050;11.036;2023-02-14T07:23:44;2.00;99.90
5059;DHT22;2548;52.050;11.036;2023-02-14T07:26:15;2.10;99.90
5059;DHT22;2548;52.050;11.036;2023-02-14T07:28:43;2.10;99.90
5059;DHT22;2548;52.050;11.036;2023-02-14T07:37:20;2.10;99.90
5059;DHT22;2548;52.050;11.036;2023-02-14T07:39:48;2.10;99.90
5059;DHT22;2548;52.050;11.036;2023-02-14T07:42:15;2.10;99.90
5059;DHT22;2548;52.050;11.036;2023-02-14T07:44:44;2.20;99.90
5059;DHT22;2548;52.050;11.036;2023-02-14T07:47:12;2.20;99.90
5059;DHT22;2548;52.050;11.036;2023-02-14T07:49:39;2.20;99.90
5059;DHT22;2548;52.050;11.036;2023-02-14T07:52:07;2.10;99.90
5059;DHT22;2548;52.050;11.036;2023-02-14T07:54:35;2.20;99.90
5059;DHT22;2548;52.050;11.036;2023-02-14T07:57:06;2.20;99.90
5059;DHT22;2548;52.050;11.036;2023-02-14T07:59:33;2.10;99.90
5059;DHT22;2548;52.050;11.036;2023-02-14T08:02:01;2.20;99.90
5059;DHT22;2548;52.050;11.036;2023-02-14T08:04:28;2.20;99.90
5059;DHT22;2548;52.050;11.036;2023-02-14T08:06:56;2.20;99.90
5059;DHT22;2548;52.050;11.036;2023-02-14T08:09:23;2.20;99.90
5059;DHT22;2548;52.050;11.036;2023-02-14T08:11:53;2.20;99.90
5059;DHT22;2548;52.050;11.036;2023-02-14T08:14:39;2.30;99.90
5059;DHT22;2548;52.050;11.036;2023-02-14T08:17:07;2.30;99.90
5059;DHT22;2548;52.050;11.036;2023-02-14T08:19:35;2.40;99.90
5059;DHT22;2548;52.050;11.036;2023-02-14T08:22:03;2.40;99.90
5059;DHT22;2548;52.050;11.036;2023-02-14T08:24:31;2.40;99.90
5059;DHT22;2548;52.050;11.036;2023-02-14T08:27:00;2.40;99.90
5059;DHT22;2548;52.050;11.036;2023-02-14T08:29:27;2.40;99.90
5059;DHT22;2548;52.050;11.036;2023-02-14T08:31:54;2.30;99.90
5059;DHT22;2548;52.050;11.036;2023-02-14T08:34:25;2.40;99.90
5059;DHT22;2548;52.050;11.036;2023-02-14T08:36:53;2.30;99.90
5059;DHT22;2548;52.050;11.036;2023-02-14T08:39:21;2.40;99.90
5059;DHT22;2548;52.050;11.036;2023-02-14T08:41:48;2.40;99.90
5059;DHT22;2548;52.050;11.036;2023-02-14T08:44:17;2.50;99.90
5059;DHT22;2548;52.050;11.036;2023-02-14T08:46:45;2.50;99.90
5059;DHT22;2548;52.050;11.036;2023-02-14T08:49:12;2.50;99.90
5059;DHT22;2548;52.050;11.036;2023-02-14T08:51:39;2.60;99.90
5059;DHT22;2548;52.050;11.036;2023-02-14T08:54:07;2.60;99.90
5059;DHT22;2548;52.050;11.036;2023-02-14T08:56:34;2.70;99.90
5059;DHT22;2548;52.050;11.036;2023-02-14T08:59:03;2.70;99.90
5059;DHT22;2548;52.050;11.036;2023-02-14T09:01:31;2.60;99.90
5059;DHT22;2548;52.050;11.036;2023-02-14T09:04:01;2.70;99.90
5059;DHT22;2548;52.050;11.036;2023-02-14T09:06:29;2.70;99.90
5059;DHT22;2548;52.050;11.036;2023-02-14T09:08:56;2.80;99.90
5059;DHT22;2548;52.050;11.036;2023-02-14T09:11:24;2.80;99.90
5059;DHT22;2548;52.050;11.036;2023-02-14T09:13:52;2.90;99.90
5059;DHT22;2548;52.050;11.036;2023-02-14T09:16:20;2.90;99.90
5059;DHT22;2548;52.050;11.036;2023-02-14T09:18:51;3.00;99.90
5059;DHT22;2548;52.050;11.036;2023-02-14T09:21:20;3.00;99.90
5059;DHT22;2548;52.050;11.036;2023-02-14T09:23:48;3.10;99.90
5059;DHT22;2548;52.050;11.036;2023-02-14T09:26:16;3.10;99.90
5059;DHT22;2548;52.050;11.036;2023-02-14T09:28:43;3.10;99.90
5059;DHT22;2548;52.050;11.036;2023-02-14T09:31:13;3.10;99.90
5059;DHT22;2548;52.050;11.036;2023-02-14T09:33:41;3.10;99.90
5059;DHT22;2548;52.050;11.036;2023-02-14T09:36:10;3.10;99.90
5059;DHT22;2548;52.050;11.036;2023-02-14T09:38:43;3.10;99.90
5059;DHT22;2548;52.050;11.036;2023-02-14T09:41:27;3.20;99.90
5059;DHT22;2548;52.050;11.036;2023-02-14T09:44:01;3.20;99.90
5059;DHT22;2548;52.050;11.036;2023-02-14T09:46:36;3.30;99.90
5059;DHT22;2548;52.050;11.036;2023-02-14T09:49:07;3.30;99.90
5059;DHT22;2548;52.050;11.036;2023-02-14T09:51:45;3.40;99.90
5059;DHT22;2548;52.050;11.036;2023-02-14T09:54:17;3.50;99.90
5059;DHT22;2548;52.050;11.036;2023-02-14T09:56:51;3.60;99.90
5059;DHT22;2548;52.050;11.036;2023-02-14T09:59:24;3.50;99.90
5059;DHT22;2548;52.050;11.036;2023-02-14T10:01:58;3.60;99.90
5059;DHT22;2548;52.050;11.036;2023-02-14T10:04:31;3.60;99.90
5059;DHT22;2548;52.050;11.036;2023-02-14T10:07:10;3.70;99.90
5059;DHT22;2548;52.050;11.036;2023-02-14T10:09:51;3.80;99.90
5059;DHT22;2548;52.050;11.036;2023-02-14T10:12:23;3.80;99.90
5059;DHT22;2548;52.050;11.036;2023-02-14T10:14:53;3.80;99.90
5059;DHT22;2548;52.050;11.036;2023-02-14T10:17:35;3.80;99.90
5059;DHT22;2548;52.050;11.036;2023-02-14T10:20:16;3.80;99.90
5059;DHT22;2548;52.050;11.036;2023-02-14T10:22:54;3.90;99.90
5059;DHT22;2548;52.050;11.036;2023-02-14T10:25:27;3.90;99.90
5059;DHT22;2548;52.050;11.036;2023-02-14T10:27:57;3.90;99.90
5059;DHT22;2548;52.050;11.036;2023-02-14T10:30:35;3.90;99.90
5059;DHT22;2548;52.050;11.036;2023-02-14T10:33:09;4.00;99.90
5059;DHT22;2548;52.050;11.036;2023-02-14T10:35:43;4.00;99.90
5059;DHT22;2548;52.050;11.036;2023-02-14T10:38:25;4.10;99.90
5059;DHT22;2548;52.050;11.036;2023-02-14T10:41:08;4.10;99.90
5059;DHT22;2548;52.050;11.036;2023-02-14T10:43:42;4.10;99.90
5059;DHT22;2548;52.050;11.036;2023-02-14T10:46:21;4.10;99.90
5059;DHT22;2548;52.050;11.036;2023-02-14T10:48:57;4.20;99.90
5059;DHT22;2548;52.050;11.036;2023-02-14T10:51:31;4.30;99.90
5059;DHT22;2548;52.050;11.036;2023-02-14T10:54:15;4.40;99.90
5059;DHT22;2548;52.050;11.036;2023-02-14T10:56:47;4.50;99.90
5059;DHT22;2548;52.050;11.036;2023-02-14T10:59:20;4.50;99.90
5059;DHT22;2548;52.050;11.036;2023-02-14T11:01:50;4.60;99.90
5059;DHT22;2548;52.050;11.036;2023-02-14T11:04:20;4.60;99.90
5059;DHT22;2548;52.050;11.036;2023-02-14T11:06:48;4.60;99.90
5059;DHT22;2548;52.050;11.036;2023-02-14T11:09:18;4.60;99.90
5059;DHT22;2548;52.050;11.036;2023-02-14T11:11:49;4.60;99.90
5059;DHT22;2548;52.050;11.036;2023-02-14T11:14:20;4.70;99.90
5059;DHT22;2548;52.050;11.036;2023-02-14T11:16:48;4.70;99.90
5059;DHT22;2548;52.050;11.036;2023-02-14T11:19:25;4.70;99.90
5059;DHT22;2548;52.050;11.036;2023-02-14T11:21:54;4.80;99.90
5059;DHT22;2548;52.050;11.036;2023-02-14T11:24:28;4.80;99.90
5059;DHT22;2548;52.050;11.036;2023-02-14T11:26:58;4.80;99.90
5059;DHT22;2548;52.050;11.036;2023-02-14T11:29:28;4.90;99.90
5059;DHT22;2548;52.050;11.036;2023-02-14T11:32:06;4.90;99.90
5059;DHT22;2548;52.050;11.036;2023-02-14T11:34:36;4.90;99.90
5059;DHT22;2548;52.050;11.036;2023-02-14T11:37:23;4.90;99.90
5059;DHT22;2548;52.050;11.036;2023-02-14T11:39:53;4.90;99.90
5059;DHT22;2548;52.050;11.036;2023-02-14T11:42:40;4.80;99.90
5059;DHT22;2548;52.050;11.036;2023-02-14T11:45:26;4.90;99.90
5059;DHT22;2548;52.050;11.036;2023-02-14T11:48:08;4.90;99.90
5059;DHT22;2548;52.050;11.036;2023-02-14T11:50:37;4.90;99.90
5059;DHT22;2548;52.050;11.036;2023-02-14T11:53:10;4.90;99.90
5059;DHT22;2548;52.050;11.036;2023-02-14T11:55:40;5.00;99.90
5059;DHT22;2548;52.050;11.036;2023-02-14T11:58:28;5.00;99.90
5059;DHT22;2548;52.050;11.036;2023-02-14T12:00:57;5.00;99.90
5059;DHT22;2548;52.050;11.036;2023-02-14T12:03:26;5.00;99.90
5059;DHT22;2548;52.050;11.036;2023-02-14T12:05:54;5.00;99.90
5059;DHT22;2548;52.050;11.036;2023-02-14T12:08:27;5.00;99.90
5059;DHT22;2548;52.050;11.036;2023-02-14T12:11:05;5.00;99.90
5059;DHT22;2548;52.050;11.036;2023-02-14T12:13:50;5.00;99.90
5059;DHT22;2548;52.050;11.036;2023-02-14T12:16:21;5.00;99.90
5059;DHT22;2548;52.050;11.036;2023-02-14T12:18:55;5.00;99.90
5059;DHT22;2548;52.050;11.036;2023-02-14T12:21:38;5.00;99.90
5059;DHT22;2548;52.050;11.036;2023-02-14T12:24:15;5.10;99.90
5059;DHT22;2548;52.050;11.036;2023-02-14T12:26:49;5.00;99.90
5059;DHT22;2548;52.050;11.036;2023-02-14T12:29:23;5.00;99.90
5059;DHT22;2548;52.050;11.036;2023-02-14T12:31:53;5.00;99.90
5059;DHT22;2548;52.050;11.036;2023-02-14T12:34:22;5.00;99.90
5059;DHT22;2548;52.050;11.036;2023-02-14T12:37:16;5.10;99.90
5059;DHT22;2548;52.050;11.036;2023-02-14T12:39:57;5.10;99.90
5059;DHT22;2548;52.050;11.036;2023-02-14T12:42:44;5.10;99.90
5059;DHT22;2548;52.050;11.036;2023-02-14T12:45:17;5.20;99.90
5059;DHT22;2548;52.050;11.036;2023-02-14T12:47:54;5.20;99.90
5059;DHT22;2548;52.050;11.036;2023-02-14T12:50:37;5.20;99.90
5059;DHT22;2548;52.050;11.036;2023-02-14T12:53:25;5.20;99.90
5059;DHT22;2548;52.050;11.036;2023-02-14T12:56:06;5.20;99.90
5059;DHT22;2548;52.050;11.036;2023-02-14T12:58:45;5.10;99.90
5059;DHT22;2548;52.050;11.036;2023-02-14T13:01:28;5.10;99.90
5059;DHT22;2548;52.050;11.036;2023-02-14T13:04:19;5.10;99.90
5059;DHT22;2548;52.050;11.036;2023-02-14T13:06:53;5.20;99.90
5059;DHT22;2548;52.050;11.036;2023-02-14T13:09:31;5.20;99.90
5059;DHT22;2548;52.050;11.036;2023-02-14T13:12:11;5.10;99.90
5059;DHT22;2548;52.050;11.036;2023-02-14T13:14:55;5.10;99.90
5059;DHT22;2548;52.050;11.036;2023-02-14T13:17:30;5.20;99.90
5059;DHT22;2548;52.050;11.036;2023-02-14T13:20:05;5.30;99.90
5059;DHT22;2548;52.050;11.036;2023-02-14T13:22:39;5.30;99.90
5059;DHT22;2548;52.050;11.036;2023-02-14T13:25:19;5.30;99.90
5059;DHT22;2548;52.050;11.036;2023-02-14T13:27:49;5.40;99.90
5059;DHT22;2548;52.050;11.036;2023-02-14T13:30:24;5.50;99.90
5059;DHT22;2548;52.050;11.036;2023-02-14T13:32:55;5.50;99.90
5059;DHT22;2548;52.050;11.036;2023-02-14T13:35:26;5.50;99.90
5059;DHT22;2548;52.050;11.036;2023-02-14T13:38:01;5.60;99.90
5059;DHT22;2548;52.050;11.036;2023-02-14T13:40:30;5.60;99.90
5059;DHT22;2548;52.050;11.036;2023-02-14T13:42:59;5.60;99.90
5059;DHT22;2548;52.050;11.036;2023-02-14T13:48:33;5.70;99.90
5059;DHT22;2548;52.050;11.036;2023-02-14T13:51:02;5.70;99.90
5059;DHT22;2548;52.050;11.036;2023-02-14T13:53:35;5.80;99.90
5059;DHT22;2548;52.050;11.036;2023-02-14T13:56:05;5.80;99.90
5059;DHT22;2548;52.050;11.036;2023-02-14T13:58:54;5.80;99.90
5059;DHT22;2548;52.050;11.036;2023-02-14T14:01:33;5.90;99.90
5059;DHT22;2548;52.050;11.036;2023-02-14T14:04:04;5.90;99.90
5059;DHT22;2548;52.050;11.036;2023-02-14T14:09:59;5.90;99.90
5059;DHT22;2548;52.050;11.036;2023-02-14T14:12:43;5.90;99.90
5059;DHT22;2548;52.050;11.036;2023-02-14T14:15:16;6.00;99.90
5059;DHT22;2548;52.050;11.036;2023-02-14T14:17:46;6.00;99.90
5059;DHT22;2548;52.050;11.036;2023-02-14T14:20:41;6.10;99.90
5059;DHT22;2548;52.050;11.036;2023-02-14T14:23:28;6.20;99.90
5059;DHT22;2548;52.050;11.036;2023-02-14T14:25:57;6.30;99.90
5059;DHT22;2548;52.050;11.036;2023-02-14T14:28:26;6.40;99.90
5059;DHT22;2548;52.050;11.036;2023-02-14T14:30:54;6.50;99.90
5059;DHT22;2548;52.050;11.036;2023-02-14T14:33:27;6.60;99.90
5059;DHT22;2548;52.050;11.036;2023-02-14T14:35:59;6.60;99.90
5059;DHT22;2548;52.050;11.036;2023-02-14T14:38:28;6.70;99.90
5059;DHT22;2548;52.050;11.036;2023-02-14T14:40:56;6.80;99.90
5059;DHT22;2548;52.050;11.036;2023-02-14T14:43:27;6.90;99.90
5059;DHT22;2548;52.050;11.036;2023-02-14T14:45:57;7.00;99.90
5059;DHT22;2548;52.050;11.036;2023-02-14T14:48:30;7.00;99.90
5059;DHT22;2548;52.050;11.036;2023-02-14T14:51:00;7.10;99.90
5059;DHT22;2548;52.050;11.036;2023-02-14T14:53:36;7.20;99.90
5059;DHT22;2548;52.050;11.036;2023-02-14T14:56:19;7.20;99.90
5059;DHT22;2548;52.050;11.036;2023-02-14T14:58:48;7.30;99.90
5059;DHT22;2548;52.050;11.036;2023-02-14T15:01:28;7.30;99.90
5059;DHT22;2548;52.050;11.036;2023-02-14T15:04:07;7.30;99.90
5059;DHT22;2548;52.050;11.036;2023-02-14T15:06:35;7.30;99.90
5059;DHT22;2548;52.050;11.036;2023-02-14T15:09:12;7.40;99.90
5059;DHT22;2548;52.050;11.036;2023-02-14T15:11:42;7.40;99.90
5059;DHT22;2548;52.050;11.036;2023-02-14T15:14:41;7.30;99.90
5059;DHT22;2548;52.050;11.036;2023-02-14T15:17:17;7.40;99.90
5059;DHT22;2548;52.050;11.036;2023-02-14T15:19:47;7.40;99.90
5059;DHT22;2548;52.050;11.036;2023-02-14T15:22:21;7.30;99.90
5059;DHT22;2548;52.050;11.036;2023-02-14T15:24:50;7.30;99.90
5059;DHT22;2548;52.050;11.036;2023-02-14T15:27:22;7.30;99.90
5059;DHT22;2548;52.050;11.036;2023-02-14T15:29:55;7.20;99.90
5059;DHT22;2548;52.050;11.036;2023-02-14T15:32:23;7.20;99.90
5059;DHT22;2548;52.050;11.036;2023-02-14T15:34:51;7.20;99.90
5059;DHT22;2548;52.050;11.036;2023-02-14T15:37:20;7.20;99.90
5059;DHT22;2548;52.050;11.036;2023-02-14T15:39:50;7.20;99.90
5059;DHT22;2548;52.050;11.036;2023-02-14T15:42:23;7.10;99.90
5059;DHT22;2548;52.050;11.036;2023-02-14T15:45:15;7.00;99.90
5059;DHT22;2548;52.050;11.036;2023-02-14T15:47:45;7.00;99.90
5059;DHT22;2548;52.050;11.036;2023-02-14T15:50:14;6.90;99.90
5059;DHT22;2548;52.050;11.036;2023-02-14T15:52:43;6.90;99.90
5059;DHT22;2548;52.050;11.036;2023-02-14T15:55:15;6.80;99.90
5059;DHT22;2548;52.050;11.036;2023-02-14T15:57:52;6.70;99.90
5059;DHT22;2548;52.050;11.036;2023-02-14T16:00:22;6.70;99.90
5059;DHT22;2548;52.050;11.036;2023-02-14T16:02:52;6.60;99.90
5059;DHT22;2548;52.050;11.036;2023-02-14T16:05:21;6.50;99.90
5059;DHT22;2548;52.050;11.036;2023-02-14T16:08:00;6.50;99.90
5059;DHT22;2548;52.050;11.036;2023-02-14T16:10:31;6.40;99.90
5059;DHT22;2548;52.050;11.036;2023-02-14T16:13:02;6.30;99.90
5059;DHT22;2548;52.050;11.036;2023-02-14T16:15:32;6.20;99.90
5059;DHT22;2548;52.050;11.036;2023-02-14T16:18:00;6.10;99.90
5059;DHT22;2548;52.050;11.036;2023-02-14T16:20:38;6.10;99.90
5059;DHT22;2548;52.050;11.036;2023-02-14T16:23:18;6.00;99.90
5059;DHT22;2548;52.050;11.036;2023-02-14T16:25:46;5.90;99.90
5059;DHT22;2548;52.050;11.036;2023-02-14T16:28:16;5.90;99.90
5059;DHT22;2548;52.050;11.036;2023-02-14T16:30:45;5.80;99.90
5059;DHT22;2548;52.050;11.036;2023-02-14T16:33:17;5.70;99.90
5059;DHT22;2548;52.050;11.036;2023-02-14T16:35:45;5.70;99.90
5059;DHT22;2548;52.050;11.036;2023-02-14T16:38:13;5.60;99.90
5059;DHT22;2548;52.050;11.036;2023-02-14T16:40:42;5.50;99.90
5059;DHT22;2548;52.050;11.036;2023-02-14T16:43:12;5.50;99.90
5059;DHT22;2548;52.050;11.036;2023-02-14T16:45:42;5.40;99.90
5059;DHT22;2548;52.050;11.036;2023-02-14T16:48:09;5.40;99.90
5059;DHT22;2548;52.050;11.036;2023-02-14T16:50:38;5.30;99.90